createdAt,value
2023-11-03T00:01:56.459Z,85.59
2023-11-03T00:06:59.597Z,85.17
2023-11-03T00:12:03.356Z,91.20
2023-11-03T00:17:08.188Z,91.59
2023-11-03T00:22:11.795Z,91.85
2023-11-03T00:27:15.620Z,91.11
2023-11-03T00:32:20.212Z,95.91
2023-11-03T00:37:23.385Z,96.24
2023-11-03T00:42:26.782Z,98.14
2023-11-03T00:47:31.683Z,97.20
2023-11-03T00:52:34.799Z,95.62
2023-11-03T00:57:39.300Z,96.41
2023-11-03T01:02:45.000Z,96.26
2023-11-03T01:07:48.344Z,96.38
2023-11-03T01:12:52.303Z,95.06
2023-11-03T01:17:57.354Z,97.16
2023-11-03T01:23:00.578Z,94.24
2023-11-03T01:28:03.886Z,97.60
2023-11-03T01:33:08.474Z,97.13
2023-11-03T01:38:11.770Z,95.49
2023-11-03T01:43:14.935Z,96.66
2023-11-03T01:48:19.528Z,97.78
2023-11-03T01:53:22.972Z,98.38
2023-11-03T01:58:26.133Z,99.75
2023-11-03T02:03:30.708Z,97.38
2023-11-03T02:08:33.776Z,96.99
2023-11-03T02:13:37.198Z,99.87
2023-11-03T02:18:41.749Z,97.97
2023-11-03T02:23:46.307Z,95.71
2023-11-03T02:28:50.577Z,97.37
2023-11-03T02:33:54.272Z,97.56
2023-11-03T02:38:58.819Z,96.37
2023-11-03T02:44:01.914Z,98.72
2023-11-03T02:49:05.275Z,99.71
2023-11-03T02:54:09.847Z,100.00
2023-11-03T02:59:13.787Z,99.81
2023-11-03T03:04:17.106Z,98.51
2023-11-03T03:09:21.728Z,94.83
2023-11-03T03:14:24.788Z,95.91
2023-11-03T03:19:27.945Z,96.84
2023-11-03T03:24:32.442Z,97.17
2023-11-03T03:29:35.480Z,98.44
2023-11-03T03:34:38.599Z,95.82
2023-11-03T03:39:43.149Z,97.00
2023-11-03T03:44:46.238Z,95.58
2023-11-03T03:49:49.428Z,94.46
2023-11-03T03:54:53.985Z,95.69
2023-11-03T03:59:57.269Z,94.11
2023-11-03T04:05:00.521Z,95.41
2023-11-03T04:10:06.620Z,96.49
2023-11-03T04:15:10.400Z,95.86
2023-11-03T04:20:13.614Z,95.91
2023-11-03T04:25:18.161Z,94.50
2023-11-03T04:30:21.916Z,93.08
2023-11-03T04:35:25.009Z,92.93
2023-11-03T04:40:29.524Z,94.22
2023-11-03T04:45:32.594Z,95.14
2023-11-03T04:50:35.710Z,94.87
2023-11-03T04:55:40.176Z,95.75
2023-11-03T05:00:43.392Z,97.38
2023-11-03T05:05:46.518Z,96.46
2023-11-03T05:10:51.041Z,96.45
2023-11-03T05:15:54.157Z,95.43
2023-11-03T05:20:57.360Z,97.38
2023-11-03T05:26:01.801Z,95.37
2023-11-03T05:31:05.706Z,94.57
2023-11-03T05:36:12.347Z,94.63
2023-11-03T05:41:17.031Z,95.92
2023-11-03T05:46:20.231Z,96.27
2023-11-03T05:51:23.336Z,95.57
2023-11-03T05:56:27.965Z,94.27
2023-11-03T06:01:34.236Z,94.75
2023-11-03T06:06:37.376Z,94.46
2023-11-03T06:11:41.932Z,94.18
2023-11-03T06:16:45.090Z,94.82
2023-11-03T06:21:48.235Z,95.15
2023-11-03T06:26:52.949Z,94.22
2023-11-03T06:31:56.299Z,93.47
2023-11-03T06:36:59.979Z,92.95
2023-11-03T06:42:07.149Z,93.83
2023-11-03T06:47:10.310Z,94.24
2023-11-03T06:52:13.650Z,92.24
2023-11-03T06:57:18.514Z,94.95
2023-11-03T07:02:21.737Z,94.07
2023-11-03T07:07:24.943Z,93.07
2023-11-03T07:12:29.432Z,94.40
2023-11-03T07:17:32.522Z,94.96
2023-11-03T07:22:35.654Z,94.08
2023-11-03T07:27:40.326Z,91.62
2023-11-03T07:32:46.228Z,90.68
2023-11-03T07:37:49.512Z,91.73
2023-11-03T07:42:54.015Z,90.24
2023-11-03T07:47:57.758Z,87.48
2023-11-03T07:53:01.220Z,86.69
2023-11-03T07:58:06.963Z,81.40
2023-11-03T08:03:10.277Z,84.69
2023-11-03T08:08:15.225Z,85.87
2023-11-03T08:13:20.431Z,86.75
2023-11-03T08:18:24.550Z,86.06
2023-11-03T08:23:27.751Z,87.35
2023-11-03T08:28:33.903Z,85.51
2023-11-03T08:33:37.060Z,84.71
2023-11-03T08:38:40.223Z,83.68
2023-11-03T08:43:46.608Z,81.58
2023-11-03T08:48:49.771Z,83.41
2023-11-03T08:53:52.965Z,81.96
2023-11-03T08:58:58.225Z,81.08
2023-11-03T09:04:03.086Z,81.61
2023-11-03T09:09:07.428Z,79.25
2023-11-03T09:14:12.227Z,81.68
2023-11-03T09:19:15.454Z,81.22
2023-11-03T09:24:18.913Z,81.44
2023-11-03T09:29:24.155Z,82.44
2023-11-03T09:34:30.393Z,82.74
2023-11-03T09:39:36.771Z,80.30
2023-11-03T09:44:42.054Z,82.31
2023-11-03T09:49:45.406Z,82.16
2023-11-03T09:54:49.239Z,81.42
2023-11-03T09:59:54.236Z,80.73
2023-11-03T10:04:57.491Z,81.24
2023-11-03T10:10:01.474Z,83.16
2023-11-03T10:15:07.289Z,81.67
2023-11-03T10:20:13.150Z,80.60
2023-11-03T10:25:16.493Z,78.21
2023-11-03T10:30:21.352Z,76.76
2023-11-03T10:35:24.565Z,73.75
2023-11-03T10:40:27.715Z,75.62
2023-11-03T10:45:33.855Z,76.48
2023-11-03T10:50:38.689Z,75.87
2023-11-03T10:55:50.717Z,75.94
2023-11-03T11:01:05.405Z,74.59
2023-11-03T11:06:15.463Z,72.20
2023-11-03T11:11:19.452Z,71.70
2023-11-03T11:16:23.981Z,71.45
2023-11-03T11:21:31.552Z,70.30
2023-11-03T11:26:36.191Z,70.69
2023-11-03T11:31:41.758Z,71.05
2023-11-03T11:36:47.746Z,69.52
2023-11-03T11:41:52.787Z,72.72
2023-11-03T11:46:58.948Z,72.03
2023-11-03T11:52:02.754Z,72.48
2023-11-03T11:57:06.874Z,72.40
2023-11-03T12:02:11.758Z,72.99
2023-11-03T12:07:14.910Z,74.92
2023-11-03T12:12:18.050Z,73.60
2023-11-03T12:17:22.653Z,73.02
2023-11-03T12:22:27.426Z,71.99
2023-11-03T12:27:30.596Z,73.14
2023-11-03T12:32:36.132Z,74.63
2023-11-03T12:37:44.021Z,74.82
2023-11-03T12:42:47.253Z,75.66
2023-11-03T12:47:52.129Z,72.38
2023-11-03T12:53:04.513Z,73.67
2023-11-03T12:58:11.773Z,73.31
2023-11-03T13:03:17.883Z,74.08
2023-11-03T13:08:21.573Z,73.85
2023-11-03T13:13:24.774Z,72.96
2023-11-03T13:18:29.389Z,73.13
2023-11-03T13:23:33.198Z,71.39
2023-11-03T13:28:36.350Z,73.04
2023-11-03T13:33:41.491Z,73.01
2023-11-03T13:38:44.933Z,74.42
2023-11-03T13:43:48.590Z,74.47
2023-11-03T13:48:53.146Z,74.96
2023-11-03T13:53:57.601Z,72.60
2023-11-03T13:59:01.362Z,72.28
2023-11-03T14:04:07.170Z,72.74
2023-11-03T14:09:11.655Z,73.15
2023-11-03T14:14:16.198Z,74.09
2023-11-03T14:19:20.903Z,74.00
2023-11-03T14:24:25.204Z,74.78
2023-11-03T14:29:29.439Z,75.67
2023-11-03T14:34:34.017Z,75.30
2023-11-03T14:39:37.361Z,73.23
2023-11-03T14:44:40.556Z,75.52
2023-11-03T14:49:45.233Z,78.22
2023-11-03T14:54:48.817Z,80.69
2023-11-03T14:59:52.486Z,79.24
2023-11-03T15:04:57.059Z,81.74
2023-11-03T15:10:01.917Z,81.95
2023-11-03T15:15:06.564Z,83.24
2023-11-03T15:20:14.963Z,85.04
2023-11-03T15:25:18.778Z,82.71
2023-11-03T15:30:22.487Z,84.70
2023-11-03T15:35:28.440Z,85.47
2023-11-03T15:40:32.509Z,87.78
2023-11-03T15:45:35.642Z,87.82
2023-11-03T15:50:40.134Z,88.02
2023-11-03T15:55:46.129Z,89.60
2023-11-03T16:00:51.075Z,89.92
2023-11-03T16:05:55.712Z,89.90
2023-11-03T16:10:58.968Z,90.89
2023-11-03T16:16:02.128Z,90.30
2023-11-03T16:21:06.935Z,91.20
2023-11-03T16:26:10.153Z,92.15
2023-11-03T16:31:13.603Z,92.36
2023-11-03T16:36:20.680Z,92.22
2023-11-03T16:41:24.520Z,94.15
2023-11-03T16:46:27.791Z,93.35
2023-11-03T16:51:32.951Z,93.91
2023-11-03T16:56:36.090Z,92.22
2023-11-03T17:01:39.902Z,91.72
2023-11-03T17:06:44.941Z,91.68
2023-11-03T17:11:48.836Z,91.48
2023-11-03T17:16:51.932Z,91.75
2023-11-03T17:21:56.628Z,92.00
2023-11-03T17:26:59.742Z,91.92
2023-11-03T17:32:02.895Z,92.59
2023-11-03T17:37:07.493Z,93.88
2023-11-03T17:42:10.653Z,93.54
2023-11-03T17:47:14.815Z,93.54
2023-11-03T17:52:19.340Z,95.14
2023-11-03T17:57:22.799Z,95.19
2023-11-03T18:02:25.850Z,94.77
2023-11-03T18:07:30.341Z,95.65
2023-11-03T18:12:33.476Z,95.27
2023-11-03T18:17:36.645Z,93.99
2023-11-03T18:22:41.536Z,96.10
2023-11-03T18:27:44.812Z,94.93
2023-11-03T18:32:48.683Z,95.41
2023-11-03T18:37:53.310Z,95.23
2023-11-03T18:42:56.728Z,95.49
2023-11-03T18:48:02.050Z,96.43
2023-11-03T18:55:12.016Z,96.17
2023-11-03T19:00:11.248Z,96.74
2023-11-03T19:04:46.206Z,97.80
2023-11-03T19:09:18.791Z,97.45
2023-11-03T19:14:22.697Z,97.85
2023-11-03T19:19:26.834Z,98.68
2023-11-03T19:24:31.352Z,98.69
2023-11-03T19:29:37.430Z,97.74
2023-11-03T19:34:44.486Z,99.94
2023-11-03T19:39:49.092Z,100.00
2023-11-03T19:44:52.241Z,97.92
2023-11-03T19:49:55.322Z,98.41
2023-11-03T19:54:59.921Z,97.62
2023-11-03T20:00:03.504Z,96.83
2023-11-03T20:05:07.830Z,96.88
2023-11-03T20:10:13.152Z,96.38
2023-11-03T20:15:16.786Z,94.98
2023-11-03T20:20:20.173Z,95.41
2023-11-03T20:25:24.658Z,97.60
2023-11-03T20:30:27.967Z,96.05
2023-11-03T20:35:31.058Z,96.32
2023-11-03T20:40:35.727Z,95.79
2023-11-03T20:45:39.402Z,93.57
2023-11-03T20:50:42.632Z,92.24
2023-11-03T20:55:47.319Z,94.34
2023-11-03T21:00:50.595Z,94.63
2023-11-03T21:05:59.385Z,96.25
2023-11-03T21:11:05.689Z,95.86
2023-11-03T21:16:13.404Z,96.43
2023-11-03T21:21:17.471Z,94.17
2023-11-03T21:26:22.653Z,93.94
2023-11-03T21:31:26.723Z,93.24
2023-11-03T21:36:29.894Z,93.27
2023-11-03T21:41:34.815Z,94.29
2023-11-03T21:46:37.967Z,92.83
2023-11-03T21:51:42.480Z,90.90
2023-11-03T21:56:47.175Z,91.66
2023-11-03T22:01:50.704Z,92.68
2023-11-03T22:06:53.875Z,94.20
2023-11-03T22:11:58.364Z,94.04
2023-11-03T22:17:01.471Z,94.62
2023-11-03T22:22:04.936Z,93.75
2023-11-03T22:27:10.696Z,94.18
2023-11-03T22:32:15.421Z,95.44
2023-11-03T22:37:18.529Z,96.72
2023-11-03T22:42:23.041Z,94.88
2023-11-03T22:47:26.194Z,95.54
2023-11-03T22:52:29.329Z,96.99
2023-11-03T22:57:33.850Z,97.58
2023-11-03T23:02:37.006Z,97.10
2023-11-03T23:07:40.121Z,98.32
2023-11-03T23:12:44.665Z,97.68
2023-11-03T23:17:48.091Z,97.05
2023-11-03T23:22:51.279Z,97.58
2023-11-03T23:27:55.811Z,96.55
2023-11-03T23:33:00.223Z,97.53
2023-11-03T23:38:03.371Z,97.31
2023-11-03T23:43:08.351Z,99.09
2023-11-03T23:48:11.572Z,99.08
2023-11-03T23:53:15.613Z,98.99
2023-11-03T23:58:21.034Z,99.16
